| |
Missouri Department of Transportation

Social Media Facebook Twitter Flickr Blog YouTube RSS

Current METAR Information for All MoDOT Locations 
AWOS Home - General Info for all Airports
Current AWOS for all Airports - Current METAR for all Airports
Glossary - Disclaimer - Other Links


Automated Weather Observation System
Date: 10-01-2014
 
Location Current METAR Record
HANNIBAL METAR KHAE 011158Z AUTO 10004KT 5SM BR CLR 15/14 A2988 RMK AO2 LTG DSNT W
HARRISONVILLE  No current data available
LEBANON METAR KLBO 011205Z AUTO 17007KT 10SM CLR 18/12 A2987 RMK AO2 LTG DSNT N
MALDEN  No current data available
MARSHALL METAR KMHL 011229Z AUTO 11004KT 10SM VCTS SCT044 SCT050 BKN080 19/15 A2981 RMK AO2 LTG DSNT S THRU N
MARYVILLE  No current data available
MEXICO  No current data available
MOBERLY METAR KMBY 011159Z AUTO 13007KT 10SM BKN065 16/13 A2985 RMK AO2 LTG DSNT W AND NW
NEVADA METAR KNVD 011233Z AUTO 17008KT 4SM HZ SCT110 19/15 A2980 RMK AO2
PIEDMONT  No current data available
SIKESTON  No current data available
SULLIVAN METAR KUUV 011213Z AUTO 00000KT 10SM CLR 17/12 A2992 RMK AO2 LTG DSNT W
WARSAW  No current data available
About Us
How Do I...
Contact Us
Missouri Department of Transportation
Central Office
105 W. Capitol Avenue
Jefferson City, MO 65102
1-888-ASK-MODOT (275-6636)
1-866-831-6277 (Motor Carrier Services)
Drivers License Offices
horz_bar
| | |
Missouri State Government
© 2013 Missouri Department of Transportation. All Rights Reserved.   Privacy Policy.
 
 
 
 
RSS FeedYoutubeBlogFlickrTwitter Facebook